Time;durP1;ratioP1;P1;durP2;ratioP2;P2;SDS_P1;SDS_P2;PMS_P1;PMS_P2;Temp;Humidity;BMP_temperature;BMP_pressure;BME280_temperature;BME280_humidity;BME280_pressure;Samples;Min_cycle;Max_cycle;Signal;HPM_P1;HPM_P2
2022/03/19 00:04:59;;;;;;;20.55;15.18;;;9.00;81.10;;;;;;4786304;29;20053;-82
2022/03/19 00:08:30;;;;;;;17.27;12.35;;;9.00;81.00;;;;;;4858639;29;20040;-80
2022/03/19 00:17:16;;;;;;;;;;;;;;;;;;;;;
2022/03/19 00:23:16;;;;;;;23.30;15.05;;;8.90;80.90;;;;;;5030867;28;20035;-80
2022/03/19 00:40:10;;;;;;;27.98;13.70;;;8.90;80.60;;;;;;4894072;29;20031;-80
2022/03/19 00:43:20;;;;;;;;;;;;;;;;;;;;;
2022/03/19 00:49:52;;;;;;;19.38;13.73;;;8.90;80.50;;;;;;5046643;28;20508;-82
2022/03/19 01:00:15;;;;;;;18.02;13.15;;;8.70;80.50;;;;;;5069383;28;20701;-80
2022/03/19 01:07:22;;;;;;;;;;;;;;;;;;;;;
2022/03/19 01:47:48;;;;;;;17.50;13.20;;;8.60;80.50;;;;;;4832612;29;20554;-81
2022/03/19 01:58:21;;;;;;;21.23;13.95;;;8.70;79.20;;;;;;4858969;29;20065;-81
2022/03/19 02:08:44;;;;;;;;;;;;;;;;;;;;;
2022/03/19 02:19:07;;;;;;;;;;;;;;;;;;;;;
2022/03/19 02:22:25;;;;;;;20.77;15.20;;;8.70;79.40;;;;;;4926112;29;20144;-80
2022/03/19 02:25:38;;;;;;;21.88;13.43;;;8.60;79.80;;;;;;4908362;29;20041;-80
2022/03/19 02:29:02;;;;;;;;;;;;;;;;;;;;;
2022/03/19 02:39:02;;;;;;;26.38;15.95;;;8.50;79.90;;;;;;4911998;29;20035;-81
2022/03/19 03:52:26;;;;;;;24.88;18.20;;;8.40;79.30;;;;;;4673690;30;20048;-82
2022/03/19 03:54:55;;;;;;;28.17;18.63;;;8.40;79.90;;;;;;4854758;29;20070;-82
2022/03/19 04:11:45;;;;;;;;;;;;;;;;;;;;;
2022/03/19 04:18:09;;;;;;;26.77;17.30;;;8.10;82.20;;;;;;4910028;28;20553;-82
2022/03/19 04:21:29;;;;;;;;;;;;;;;;;;;;;
2022/03/19 04:27:46;;;;;;;27.25;18.02;;;8.00;82.90;;;;;;4967857;28;20049;-80
2022/03/19 04:37:52;;;;;;;28.67;15.77;;;7.90;82.90;;;;;;4898567;29;20492;-82
2022/03/19 04:44:38;;;;;;;26.35;17.55;;;7.90;83.50;;;;;;4874832;29;20041;-82
2022/03/19 04:47:10;;;;;;;24.73;17.90;;;7.80;83.50;;;;;;4859611;29;20140;-83
2022/03/19 04:50:04;;;;;;;;;;;;;;;;;;;;;
2022/03/19 04:52:51;;;;;;;24.00;17.08;;;7.70;84.00;;;;;;4932527;28;20111;-82
2022/03/19 04:56:11;;;;;;;23.70;16.52;;;7.70;84.20;;;;;;4948970;28;20059;-81
2022/03/19 05:02:24;;;;;;;25.75;15.48;;;7.60;84.60;;;;;;4926975;29;20480;-83
2022/03/19 05:11:34;;;;;;;27.88;15.38;;;7.50;85.00;;;;;;4865036;29;20571;-82
2022/03/19 05:21:44;;;;;;;24.60;16.15;;;7.60;85.20;;;;;;4876929;29;20088;-82
2022/03/19 05:24:20;;;;;;;19.52;14.95;;;7.50;85.00;;;;;;4869058;29;20045;-81
2022/03/19 05:26:46;;;;;;;33.40;17.80;;;7.50;85.10;;;;;;4877931;29;20033;-81
2022/03/19 05:29:48;;;;;;;24.83;16.23;;;7.50;85.30;;;;;;4877934;29;20039;-82
2022/03/19 05:32:32;;;;;;;24.98;15.80;;;7.50;85.20;;;;;;4877622;29;20124;-81
2022/03/19 05:35:26;;;;;;;22.73;16.13;;;7.50;85.30;;;;;;4899947;29;20051;-80
2022/03/19 05:41:51;;;;;;;;;;;;;;;;;;;;;
2022/03/19 05:47:40;;;;;;;27.45;15.75;;;7.70;84.60;;;;;;4867286;29;20049;-80
2022/03/19 05:50:53;;;;;;;21.98;15.25;;;7.80;84.00;;;;;;4870856;29;20038;-80
2022/03/19 05:54:50;;;;;;;26.33;15.55;;;7.90;83.60;;;;;;4873048;29;20085;-81
2022/03/19 05:57:30;;;;;;;23.13;14.25;;;7.90;83.70;;;;;;4914356;29;20036;-80
2022/03/19 05:59:56;;;;;;;21.42;14.85;;;7.90;83.60;;;;;;4914324;29;20044;-81
2022/03/19 06:02:22;;;;;;;22.55;16.70;;;7.90;83.50;;;;;;4968020;28;20194;-81
2022/03/19 06:04:53;;;;;;;29.77;15.73;;;7.90;83.50;;;;;;4955457;28;20437;-81
2022/03/19 06:07:20;;;;;;;19.75;14.32;;;8.00;82.80;;;;;;4972600;28;20055;-82
2022/03/19 06:09:48;;;;;;;26.67;17.13;;;8.00;82.40;;;;;;4971842;28;20042;-81
2022/03/19 06:13:05;;;;;;;22.52;16.23;;;8.10;82.50;;;;;;5025592;28;20028;-80
2022/03/19 06:15:42;;;;;;;22.73;12.88;;;8.10;82.40;;;;;;5034460;28;20044;-80
2022/03/19 06:22:09;;;;;;;31.38;16.13;;;8.10;82.10;;;;;;5049118;28;20668;-82
2022/03/19 06:24:38;;;;;;;20.17;13.77;;;8.20;82.10;;;;;;5034517;28;20037;-81
2022/03/19 06:27:04;;;;;;;26.88;15.60;;;8.20;81.50;;;;;;5051063;28;20021;-80
2022/03/19 06:29:50;;;;;;;24.88;15.30;;;8.20;81.60;;;;;;5051894;28;20021;-82
2022/03/19 06:32:49;;;;;;;22.70;15.50;;;8.30;81.40;;;;;;5052427;28;20028;-80
2022/03/19 06:38:43;;;;;;;21.20;15.60;;;8.40;80.20;;;;;;5048976;28;20649;-83
2022/03/19 06:41:11;;;;;;;24.52;16.48;;;8.50;79.90;;;;;;5034800;28;20121;-79
2022/03/19 06:43:44;;;;;;;21.52;16.13;;;8.50;80.00;;;;;;5051584;28;20017;-78
2022/03/19 06:46:10;;;;;;;26.50;14.10;;;8.50;79.80;;;;;;5050581;28;20063;-79
2022/03/19 06:48:36;;;;;;;23.85;15.68;;;8.60;79.80;;;;;;5050128;28;20701;-80
2022/03/19 06:51:07;;;;;;;24.33;14.35;;;8.60;79.60;;;;;;5050593;28;20059;-77
2022/03/19 06:53:56;;;;;;;26.30;15.43;;;8.60;79.20;;;;;;5032537;28;20366;-79
2022/03/19 06:56:22;;;;;;;21.20;14.20;;;8.70;78.90;;;;;;5050552;28;20577;-78
2022/03/19 06:58:51;;;;;;;24.38;15.77;;;8.70;78.80;;;;;;5050440;28;20136;-79
2022/03/19 07:01:17;;;;;;;27.25;15.82;;;8.80;78.80;;;;;;5050266;28;20479;-80
2022/03/19 07:03:47;;;;;;;21.45;14.45;;;8.90;77.90;;;;;;5049963;28;20029;-80
2022/03/19 07:06:18;;;;;;;24.05;14.90;;;8.90;77.80;;;;;;5032394;28;20419;-79
2022/03/19 07:08:44;;;;;;;21.58;14.10;;;9.00;77.80;;;;;;5049822;28;20021;-79
2022/03/19 07:11:11;;;;;;;24.42;14.82;;;9.00;76.60;;;;;;5050053;28;20043;-80
2022/03/19 07:13:37;;;;;;;27.52;15.48;;;9.10;76.70;;;;;;5050776;28;20033;-79
2022/03/19 07:16:15;;;;;;;20.92;14.65;;;9.20;76.10;;;;;;5051746;28;20029;-78
2022/03/19 07:18:41;;;;;;;22.98;14.95;;;9.20;75.80;;;;;;5033778;28;20495;-79
2022/03/19 07:21:15;;;;;;;24.02;14.15;;;9.20;75.20;;;;;;5051868;28;20112;-78
2022/03/19 07:23:44;;;;;;;21.13;14.80;;;9.30;74.20;;;;;;5033735;28;20040;-79
2022/03/19 07:26:10;;;;;;;23.75;16.23;;;9.40;74.90;;;;;;5051544;28;20040;-79
2022/03/19 07:28:36;;;;;;;21.17;14.05;;;9.40;74.40;;;;;;5051818;28;20025;-79
2022/03/19 07:31:03;;;;;;;20.52;14.32;;;9.50;73.40;;;;;;5051613;28;20039;-78
2022/03/19 07:33:33;;;;;;;18.80;14.05;;;9.50;73.70;;;;;;5033705;28;20036;-79
2022/03/19 07:36:01;;;;;;;24.42;13.95;;;9.50;72.90;;;;;;5051654;28;20024;-78
2022/03/19 07:38:27;;;;;;;19.75;13.73;;;9.60;72.70;;;;;;5051608;28;20118;-79
2022/03/19 07:43:40;;;;;;;19.70;13.50;;;9.70;71.90;;;;;;5051619;28;20086;-78
2022/03/19 07:46:06;;;;;;;18.90;13.02;;;9.80;70.80;;;;;;5051331;28;20033;-78
2022/03/19 07:48:32;;;;;;;16.77;11.90;;;9.80;68.90;;;;;;5051254;28;20036;-78
2022/03/19 07:50:58;;;;;;;19.90;12.90;;;9.90;69.40;;;;;;5033509;28;20029;-78
2022/03/19 07:53:27;;;;;;;19.70;13.48;;;10.00;68.70;;;;;;5033343;28;20021;-79
2022/03/19 07:55:55;;;;;;;22.90;13.10;;;10.00;67.60;;;;;;5051258;28;20025;-79
2022/03/19 07:58:25;;;;;;;24.40;12.80;;;10.00;67.40;;;;;;5051099;28;20045;-79
2022/03/19 08:00:51;;;;;;;18.35;12.15;;;10.10;68.40;;;;;;5051093;28;20031;-78
2022/03/19 08:03:17;;;;;;;19.35;12.70;;;10.10;67.10;;;;;;5050973;28;20096;-78
2022/03/19 08:05:43;;;;;;;20.92;12.02;;;10.30;67.80;;;;;;5051021;28;20128;-78
2022/03/19 08:08:10;;;;;;;17.67;12.55;;;10.40;66.40;;;;;;5033275;28;20040;-79
2022/03/19 08:10:37;;;;;;;19.27;11.48;;;10.40;64.30;;;;;;5037751;28;20021;-78
2022/03/19 08:13:09;;;;;;;16.98;12.10;;;10.50;63.10;;;;;;5050794;28;20055;-78
2022/03/19 08:15:38;;;;;;;15.98;11.48;;;10.50;64.50;;;;;;5050663;28;20029;-79
2022/03/19 08:18:09;;;;;;;22.55;12.07;;;10.50;63.50;;;;;;5050631;28;20052;-78
2022/03/19 08:20:35;;;;;;;18.50;11.10;;;10.70;63.10;;;;;;5050723;28;20522;-78
2022/03/19 08:23:03;;;;;;;16.27;11.98;;;10.70;63.70;;;;;;5050752;28;20067;-78
2022/03/19 08:25:37;;;;;;;15.82;11.73;;;10.80;64.00;;;;;;5032707;28;20045;-78
2022/03/19 08:28:04;;;;;;;15.60;11.30;;;10.80;63.80;;;;;;5050479;28;20021;-79
2022/03/19 08:30:29;;;;;;;16.17;11.00;;;10.90;63.90;;;;;;5050543;28;20029;-79
2022/03/19 08:32:56;;;;;;;14.45;10.50;;;10.90;62.50;;;;;;5050575;28;20020;-78
2022/03/19 08:35:22;;;;;;;18.27;12.27;;;11.00;62.90;;;;;;5050468;28;20444;-78
2022/03/19 08:37:48;;;;;;;18.75;11.68;;;11.00;61.40;;;;;;5050557;28;20021;-78
2022/03/19 08:40:16;;;;;;;19.90;11.48;;;11.00;62.80;;;;;;5050569;28;20086;-79
2022/03/19 08:42:51;;;;;;;16.58;11.15;;;11.10;62.40;;;;;;5050416;28;20595;-79
2022/03/19 08:45:22;;;;;;;19.10;12.35;;;11.20;62.00;;;;;;5050289;28;20438;-78
2022/03/19 08:47:48;;;;;;;20.38;11.20;;;11.30;62.30;;;;;;5032603;28;20021;-78
2022/03/19 08:50:35;;;;;;;16.42;11.73;;;11.30;61.90;;;;;;5032211;28;20025;-78
2022/03/19 08:53:00;;;;;;;14.30;11.55;;;11.30;61.10;;;;;;5043056;28;20032;-78
2022/03/19 08:55:26;;;;;;;17.65;10.23;;;11.30;61.00;;;;;;5052876;28;20028;-78
2022/03/19 08:57:52;;;;;;;16.42;11.43;;;11.30;60.30;;;;;;5054048;28;20086;-79
2022/03/19 09:00:18;;;;;;;26.92;12.07;;;11.40;60.50;;;;;;5054615;28;20504;-78
2022/03/19 09:02:47;;;;;;;15.30;10.63;;;11.60;60.20;;;;;;5054665;28;20027;-78
2022/03/19 09:05:13;;;;;;;18.52;12.40;;;11.60;60.30;;;;;;5036356;28;20036;-78
2022/03/19 09:07:39;;;;;;;17.10;11.40;;;11.60;59.30;;;;;;5054389;28;20091;-79
2022/03/19 09:10:06;;;;;;;14.18;10.68;;;11.70;59.10;;;;;;5047256;28;20021;-78
2022/03/19 09:12:37;;;;;;;15.85;11.20;;;11.60;59.00;;;;;;5036225;28;20021;-78
2022/03/19 09:15:07;;;;;;;16.95;10.85;;;11.70;59.10;;;;;;5036375;28;20111;-78
2022/03/19 09:17:36;;;;;;;15.48;11.02;;;11.80;59.10;;;;;;5054096;28;20013;-78
2022/03/19 09:20:02;;;;;;;16.20;10.85;;;11.90;58.30;;;;;;5054022;28;20631;-79
2022/03/19 09:22:31;;;;;;;13.57;10.68;;;11.80;57.90;;;;;;5053771;28;20029;-78
2022/03/19 09:25:10;;;;;;;17.83;11.23;;;11.90;58.20;;;;;;5035654;28;20259;-79
2022/03/19 09:27:39;;;;;;;14.98;10.55;;;12.00;57.90;;;;;;5053843;28;20037;-79
2022/03/19 09:30:06;;;;;;;14.27;10.07;;;12.10;57.80;;;;;;5049623;28;20017;-78
2022/03/19 09:32:32;;;;;;;14.07;9.73;;;12.20;58.80;;;;;;5053865;28;20681;-78
2022/03/19 09:34:58;;;;;;;14.40;10.10;;;12.30;57.70;;;;;;5053517;28;20112;-79
2022/03/19 09:37:27;;;;;;;15.05;10.68;;;12.40;57.00;;;;;;5053509;28;20434;-78
2022/03/19 09:39:53;;;;;;;17.98;10.43;;;12.40;56.30;;;;;;5053593;28;20099;-78
2022/03/19 09:42:39;;;;;;;13.45;9.25;;;12.40;57.20;;;;;;5053788;28;20107;-79
2022/03/19 09:45:06;;;;;;;14.43;10.05;;;12.60;56.50;;;;;;5035978;28;20519;-78
2022/03/19 09:47:32;;;;;;;15.32;9.85;;;12.60;56.40;;;;;;5053441;28;20025;-78
2022/03/19 09:50:01;;;;;;;14.82;9.77;;;12.70;56.30;;;;;;5052719;28;20082;-79
2022/03/19 09:52:29;;;;;;;17.67;9.45;;;12.80;55.90;;;;;;5053452;28;20025;-78
2022/03/19 09:55:02;;;;;;;14.07;9.98;;;12.80;55.80;;;;;;5053324;28;20452;-79
2022/03/19 09:57:28;;;;;;;14.43;10.13;;;12.80;55.20;;;;;;5053307;28;20029;-79
2022/03/19 09:59:57;;;;;;;13.07;9.35;;;12.90;56.20;;;;;;5035144;28;20056;-79
2022/03/19 10:02:23;;;;;;;17.45;10.05;;;12.90;55.30;;;;;;5035214;28;20029;-79
2022/03/19 10:04:53;;;;;;;12.65;10.10;;;12.80;55.00;;;;;;5052139;28;20132;-79
2022/03/19 10:10:11;;;;;;;14.00;10.02;;;13.20;55.20;;;;;;5049570;28;20534;-79
2022/03/19 10:12:39;;;;;;;22.63;10.52;;;13.20;55.30;;;;;;5053039;28;20048;-78
2022/03/19 10:15:09;;;;;;;13.40;9.82;;;13.30;55.30;;;;;;5048541;28;20017;-79
2022/03/19 10:17:39;;;;;;;14.85;10.63;;;13.40;55.60;;;;;;5052972;28;20021;-78
2022/03/19 10:20:11;;;;;;;16.83;9.95;;;13.50;53.90;;;;;;5048483;28;20021;-78
2022/03/19 10:22:45;;;;;;;14.38;10.30;;;13.50;53.80;;;;;;5052536;28;20028;-78
2022/03/19 10:25:13;;;;;;;15.00;9.85;;;13.40;54.40;;;;;;5034862;28;20496;-79
2022/03/19 10:27:43;;;;;;;16.52;9.48;;;13.50;55.20;;;;;;5052814;28;20028;-79
2022/03/19 10:30:11;;;;;;;13.07;9.77;;;13.60;54.60;;;;;;5030981;28;20192;-78
2022/03/19 10:32:41;;;;;;;16.80;10.27;;;13.80;54.30;;;;;;5034920;28;20017;-78
2022/03/19 10:35:30;;;;;;;12.95;9.23;;;13.90;54.90;;;;;;5048705;28;20483;-78
2022/03/19 10:38:16;;;;;;;15.70;9.77;;;14.00;54.10;;;;;;5044581;28;20025;-78
2022/03/19 10:40:48;;;;;;;14.40;9.65;;;14.00;52.20;;;;;;5030710;28;20076;-79
2022/03/19 10:43:22;;;;;;;14.63;10.30;;;14.00;53.50;;;;;;5052656;28;20040;-79
2022/03/19 10:45:51;;;;;;;20.85;10.30;;;14.10;52.90;;;;;;5052544;28;20412;-78
2022/03/19 10:48:22;;;;;;;16.15;10.40;;;14.10;51.90;;;;;;5052151;28;20013;-78
2022/03/19 10:50:49;;;;;;;17.73;9.07;;;14.00;53.40;;;;;;5052257;28;20029;-79
2022/03/19 10:53:16;;;;;;;13.65;9.18;;;14.20;52.40;;;;;;5052373;28;20384;-78
2022/03/19 10:55:42;;;;;;;11.02;8.75;;;14.30;51.00;;;;;;5034153;28;20021;-79
2022/03/19 10:58:08;;;;;;;15.38;9.43;;;14.10;52.50;;;;;;5033816;28;20094;-79
2022/03/19 11:00:37;;;;;;;12.52;9.95;;;14.30;52.70;;;;;;5052082;28;20419;-78
2022/03/19 11:03:19;;;;;;;16.10;9.40;;;14.20;52.00;;;;;;5034281;28;20060;-78
2022/03/19 11:05:47;;;;;;;17.50;10.10;;;14.10;52.20;;;;;;5052023;28;20037;-79
2022/03/19 11:08:16;;;;;;;15.77;9.60;;;14.20;52.70;;;;;;5034145;28;20464;-79
2022/03/19 11:10:43;;;;;;;18.30;8.75;;;14.30;52.40;;;;;;5051943;28;20071;-79
2022/03/19 11:13:12;;;;;;;11.38;8.88;;;14.60;51.80;;;;;;5033785;28;20688;-78
2022/03/19 11:15:45;;;;;;;13.80;8.75;;;14.50;50.60;;;;;;5043034;28;20032;-79
2022/03/19 11:18:11;;;;;;;12.45;9.40;;;14.60;52.70;;;;;;5034024;28;20025;-79
2022/03/19 11:20:37;;;;;;;13.40;9.50;;;14.80;51.80;;;;;;5043109;28;20029;-79
2022/03/19 11:23:09;;;;;;;15.55;9.30;;;14.90;51.50;;;;;;5051945;28;20047;-79
2022/03/19 11:25:48;;;;;;;14.85;9.63;;;15.10;51.70;;;;;;5051594;28;20037;-79
2022/03/19 11:28:15;;;;;;;13.90;9.45;;;15.30;50.90;;;;;;5051500;28;20024;-79
2022/03/19 11:30:47;;;;;;;13.57;9.32;;;15.40;49.70;;;;;;5051646;28;20115;-79
2022/03/19 11:33:15;;;;;;;11.02;9.77;;;15.40;51.80;;;;;;5051469;28;20043;-79
2022/03/19 11:36:02;;;;;;;17.30;9.35;;;15.50;51.00;;;;;;5051351;28;20268;-79
2022/03/19 11:38:38;;;;;;;11.98;9.00;;;15.50;50.50;;;;;;5016596;28;20040;-79
2022/03/19 11:41:30;;;;;;;14.18;9.18;;;15.60;50.70;;;;;;5033322;28;20040;-79
2022/03/19 11:44:16;;;;;;;17.60;9.50;;;15.70;50.40;;;;;;5028471;28;20052;-79
2022/03/19 11:47:06;;;;;;;17.15;9.77;;;15.70;49.80;;;;;;5050533;28;20051;-79
2022/03/19 11:49:54;;;;;;;13.02;8.80;;;15.70;50.30;;;;;;5033181;28;20425;-79
2022/03/19 11:52:26;;;;;;;13.63;10.13;;;15.80;49.10;;;;;;5047283;28;20029;-79
2022/03/19 11:55:03;;;;;;;12.47;8.97;;;15.70;48.70;;;;;;5049234;28;20032;-79
2022/03/19 11:57:47;;;;;;;13.50;9.32;;;15.60;48.50;;;;;;5048093;28;20746;-79
2022/03/19 12:00:20;;;;;;;14.23;9.02;;;15.60;48.70;;;;;;5047924;28;20055;-79
2022/03/19 12:03:24;;;;;;;12.35;9.55;;;15.70;48.80;;;;;;5051280;28;20013;-79
2022/03/19 12:05:53;;;;;;;11.93;9.02;;;15.70;48.40;;;;;;5044043;28;20063;-79
2022/03/19 12:08:20;;;;;;;15.25;9.25;;;15.70;48.40;;;;;;5050880;28;20013;-79
2022/03/19 12:10:58;;;;;;;11.02;8.90;;;15.70;48.30;;;;;;5050885;28;20041;-78
2022/03/19 12:13:26;;;;;;;11.73;8.85;;;15.50;47.70;;;;;;5050645;28;20472;-79
2022/03/19 12:15:56;;;;;;;16.33;9.15;;;15.60;48.80;;;;;;5050927;28;20423;-79
2022/03/19 12:18:32;;;;;;;12.93;8.57;;;15.80;48.50;;;;;;5051022;28;20017;-79
2022/03/19 12:21:08;;;;;;;11.90;9.60;;;16.30;47.10;;;;;;5050822;28;20104;-79
2022/03/19 12:24:16;;;;;;;14.43;9.10;;;19.30;46.10;;;;;;5050299;28;20017;-79
2022/03/19 12:26:44;;;;;;;17.40;9.48;;;22.60;42.70;;;;;;5048952;28;20040;-79
2022/03/19 12:29:12;;;;;;;13.07;9.00;;;24.30;40.20;;;;;;5050816;28;20021;-80
2022/03/19 12:31:48;;;;;;;13.13;8.90;;;25.40;38.10;;;;;;5050823;28;20032;-80
2022/03/19 12:34:18;;;;;;;11.40;8.57;;;26.30;36.70;;;;;;5050746;28;20051;-79
2022/03/19 12:36:47;;;;;;;11.23;8.13;;;26.40;36.40;;;;;;5049958;28;20025;-79
2022/03/19 12:39:16;;;;;;;10.18;8.80;;;26.10;36.00;;;;;;5050665;28;20468;-79
2022/03/19 12:41:44;;;;;;;12.80;9.15;;;26.60;35.40;;;;;;5050554;28;20025;-78
2022/03/19 12:44:25;;;;;;;11.63;8.90;;;25.70;35.10;;;;;;5050363;28;20436;-79
2022/03/19 12:47:09;;;;;;;16.30;9.35;;;25.40;35.70;;;;;;5050383;28;20024;-78
2022/03/19 12:49:35;;;;;;;11.27;8.55;;;24.70;35.80;;;;;;5050164;28;20029;-79
2022/03/19 12:52:09;;;;;;;14.63;8.85;;;25.10;36.40;;;;;;5032914;28;20108;-79
2022/03/19 12:54:35;;;;;;;16.73;9.40;;;25.80;35.00;;;;;;5031970;28;20029;-79
2022/03/19 12:57:09;;;;;;;13.10;8.57;;;25.80;36.10;;;;;;5032724;28;20032;-78
2022/03/19 12:59:35;;;;;;;15.80;8.85;;;24.70;35.70;;;;;;5032233;28;20045;-78
2022/03/19 13:02:01;;;;;;;12.52;9.20;;;24.60;35.50;;;;;;5032785;28;20365;-79
2022/03/19 13:04:29;;;;;;;14.48;9.63;;;25.70;35.10;;;;;;5049721;28;20029;-79
2022/03/19 13:06:56;;;;;;;12.98;10.73;;;26.60;34.50;;;;;;5031559;28;20025;-78
2022/03/19 13:09:48;;;;;;;14.18;10.15;;;26.40;33.60;;;;;;5050074;28;20099;-79
2022/03/19 13:12:22;;;;;;;11.57;9.27;;;26.80;34.10;;;;;;5041481;28;20045;-79
2022/03/19 13:14:51;;;;;;;10.90;8.85;;;26.40;34.60;;;;;;5032377;28;20025;-79
2022/03/19 13:17:17;;;;;;;13.40;8.75;;;28.00;33.90;;;;;;5050215;28;20516;-79
2022/03/19 13:19:43;;;;;;;12.35;8.88;;;29.00;33.10;;;;;;5032035;28;20044;-79
2022/03/19 13:22:16;;;;;;;11.38;8.75;;;26.90;34.30;;;;;;5050276;28;20116;-80
2022/03/19 13:24:42;;;;;;;12.32;8.23;;;28.30;33.70;;;;;;5049341;28;20087;-81
2022/03/19 13:27:11;;;;;;;11.23;8.88;;;29.20;33.60;;;;;;5032191;28;20471;-80
2022/03/19 13:29:37;;;;;;;12.23;8.95;;;29.40;32.50;;;;;;5049759;28;20033;-80
2022/03/19 13:32:05;;;;;;;11.57;8.05;;;28.60;32.50;;;;;;5048446;28;20075;-79
2022/03/19 13:34:41;;;;;;;10.95;8.52;;;28.00;32.70;;;;;;5049476;28;20021;-79
2022/03/19 13:37:15;;;;;;;10.27;8.93;;;26.90;33.30;;;;;;5048831;28;20492;-80
2022/03/19 13:39:44;;;;;;;11.27;8.88;;;28.20;32.80;;;;;;5052630;28;20029;-81
2022/03/19 13:42:16;;;;;;;9.98;8.63;;;29.50;32.10;;;;;;5053844;28;20484;-80
2022/03/19 13:44:47;;;;;;;13.02;9.05;;;28.90;31.80;;;;;;5034685;28;20041;-80
2022/03/19 13:47:22;;;;;;;11.77;9.10;;;28.50;33.00;;;;;;5035941;28;20106;-80
2022/03/19 13:49:57;;;;;;;10.10;8.43;;;28.30;32.80;;;;;;5053426;28;20472;-80
2022/03/19 13:52:40;;;;;;;12.25;8.60;;;28.90;32.30;;;;;;5049774;28;20063;-80
2022/03/19 13:55:07;;;;;;;10.95;8.52;;;29.60;31.50;;;;;;5031222;28;20021;-80
2022/03/19 13:57:43;;;;;;;9.90;8.23;;;30.60;30.80;;;;;;5053396;28;20075;-80
2022/03/19 14:00:10;;;;;;;11.68;8.80;;;31.30;30.30;;;;;;5049558;28;20041;-80
2022/03/19 14:02:38;;;;;;;12.43;8.60;;;31.70;29.90;;;;;;5053403;28;20540;-80
2022/03/19 14:05:05;;;;;;;12.25;9.20;;;31.30;30.00;;;;;;5052939;28;20033;-80
2022/03/19 14:07:37;;;;;;;14.95;8.75;;;30.40;30.00;;;;;;5035405;28;20475;-80
2022/03/19 14:10:08;;;;;;;12.82;9.18;;;30.40;30.40;;;;;;5036156;28;20029;-80
2022/03/19 14:12:39;;;;;;;13.90;9.57;;;29.80;30.20;;;;;;5052922;28;20041;-80
2022/03/19 14:15:06;;;;;;;10.60;9.27;;;29.10;31.40;;;;;;5048829;28;20028;-80
2022/03/19 14:17:46;;;;;;;13.20;9.10;;;28.50;31.40;;;;;;5035002;28;20049;-80
2022/03/19 14:20:13;;;;;;;12.68;9.45;;;28.30;31.10;;;;;;5049403;28;20017;-80
2022/03/19 14:22:38;;;;;;;13.70;9.02;;;28.30;30.80;;;;;;5052966;28;20028;-80
2022/03/19 14:25:05;;;;;;;13.02;8.85;;;27.60;31.40;;;;;;5055529;28;20041;-81
2022/03/19 14:27:31;;;;;;;11.73;8.95;;;28.00;31.90;;;;;;5052661;28;20013;-80
2022/03/19 14:29:59;;;;;;;12.52;9.00;;;27.90;31.20;;;;;;5052749;28;20048;-81
2022/03/19 14:32:25;;;;;;;11.15;8.73;;;28.20;31.80;;;;;;5052851;28;20029;-80
2022/03/19 14:34:53;;;;;;;10.55;9.00;;;28.50;30.80;;;;;;5034646;28;20036;-80
2022/03/19 14:37:19;;;;;;;10.40;8.85;;;28.10;30.90;;;;;;5048307;28;20017;-80
2022/03/19 14:39:45;;;;;;;12.02;8.77;;;28.00;30.40;;;;;;5034735;28;20075;-80
2022/03/19 14:42:11;;;;;;;17.63;9.50;;;28.20;30.50;;;;;;5052609;28;20032;-80
2022/03/19 14:44:37;;;;;;;14.20;9.18;;;27.40;30.90;;;;;;5051946;28;20128;-80
2022/03/19 14:47:04;;;;;;;14.20;9.63;;;26.90;31.20;;;;;;5050702;28;20025;-79
2022/03/19 14:49:36;;;;;;;11.05;9.38;;;26.40;31.70;;;;;;5033732;28;20025;-80
2022/03/19 14:52:06;;;;;;;10.05;8.40;;;26.90;32.20;;;;;;5052543;28;20017;-80
2022/03/19 14:54:32;;;;;;;12.40;9.23;;;27.60;31.00;;;;;;5033931;28;20091;-80
2022/03/19 14:56:58;;;;;;;11.23;8.98;;;27.00;30.90;;;;;;5052106;28;20351;-81
2022/03/19 14:59:27;;;;;;;15.93;9.68;;;26.70;31.20;;;;;;5051991;28;20132;-80
2022/03/19 15:01:53;;;;;;;13.77;9.95;;;26.60;31.80;;;;;;5052283;28;20079;-80
2022/03/19 15:04:18;;;;;;;14.40;9.90;;;26.40;32.50;;;;;;5034126;28;20025;-80
2022/03/19 15:06:44;;;;;;;14.50;10.57;;;25.90;32.70;;;;;;5052091;28;20028;-81
2022/03/19 15:09:12;;;;;;;23.67;10.32;;;26.00;33.70;;;;;;5052297;28;20059;-81
2022/03/19 15:11:38;;;;;;;11.77;9.60;;;26.00;32.30;;;;;;5051986;28;20063;-80
2022/03/19 15:14:04;;;;;;;13.35;10.18;;;25.30;33.30;;;;;;5051954;28;20024;-80
2022/03/19 15:16:33;;;;;;;13.60;9.35;;;25.20;33.20;;;;;;5051584;28;20025;-80
2022/03/19 15:18:59;;;;;;;14.82;10.20;;;25.20;33.30;;;;;;5051917;28;20523;-80
2022/03/19 15:21:25;;;;;;;19.25;9.65;;;24.70;33.60;;;;;;5051819;28;20032;-80
2022/03/19 15:23:53;;;;;;;13.13;9.63;;;24.50;34.30;;;;;;5051655;28;20041;-79
2022/03/19 15:26:19;;;;;;;11.55;9.88;;;24.00;34.70;;;;;;5048786;28;20484;-80
2022/03/19 15:28:45;;;;;;;18.75;10.88;;;24.10;35.10;;;;;;5053139;28;20025;-80
2022/03/19 15:31:10;;;;;;;14.25;10.68;;;24.40;35.20;;;;;;5051597;28;20113;-81
2022/03/19 15:33:36;;;;;;;12.48;9.93;;;25.60;34.20;;;;;;5051494;28;20032;-80
2022/03/19 15:36:06;;;;;;;13.27;9.57;;;26.20;33.60;;;;;;5051205;28;20435;-81
2022/03/19 15:38:33;;;;;;;19.17;9.82;;;26.40;32.60;;;;;;5051295;28;20119;-80
2022/03/19 15:40:59;;;;;;;12.05;10.10;;;26.60;32.10;;;;;;5051396;28;20029;-80
2022/03/19 15:43:25;;;;;;;14.70;9.52;;;26.20;32.20;;;;;;5051554;28;20114;-80
2022/03/19 15:45:51;;;;;;;12.05;9.68;;;24.70;33.10;;;;;;5051305;28;20037;-80
2022/03/19 15:48:17;;;;;;;15.75;9.85;;;24.20;34.60;;;;;;5051170;28;20032;-80
2022/03/19 15:50:45;;;;;;;12.60;10.43;;;24.50;33.50;;;;;;5051366;28;20033;-80
2022/03/19 15:53:11;;;;;;;12.50;10.10;;;23.80;34.00;;;;;;5051054;28;20028;-79
2022/03/19 15:55:37;;;;;;;22.70;10.60;;;23.00;35.40;;;;;;5051419;28;20024;-80
2022/03/19 15:58:09;;;;;;;13.20;9.27;;;21.70;42.70;;;;;;5051213;28;20032;-83
2022/03/19 16:00:35;;;;;;;19.98;10.10;;;20.60;47.00;;;;;;5050607;28;20430;-82
2022/03/19 16:03:01;;;;;;;26.25;9.30;;;19.10;48.90;;;;;;5055406;28;20103;-84
2022/03/19 16:05:26;;;;;;;20.02;10.70;;;18.10;51.00;;;;;;5055318;28;20373;-91
2022/03/19 16:07:52;;;;;;;14.52;9.25;;;17.70;51.00;;;;;;5034798;28;20028;-81
2022/03/19 16:10:18;;;;;;;17.67;9.18;;;18.00;51.40;;;;;;5049745;28;20476;-82
2022/03/19 16:12:47;;;;;;;14.82;9.07;;;18.00;50.70;;;;;;5051186;28;20025;-83
2022/03/19 16:15:17;;;;;;;19.30;9.55;;;16.60;52.10;;;;;;5050902;28;20032;-81
2022/03/19 16:17:43;;;;;;;16.92;9.80;;;17.10;53.60;;;;;;5051041;28;20025;-81
2022/03/19 16:20:11;;;;;;;11.50;8.18;;;18.40;50.90;;;;;;5050719;28;20099;-82
2022/03/19 16:22:40;;;;;;;15.30;11.43;;;18.60;49.50;;;;;;5050599;28;20549;-80
2022/03/19 16:25:08;;;;;;;14.88;9.88;;;17.50;51.00;;;;;;5046589;28;20037;-81
2022/03/19 16:27:39;;;;;;;14.25;8.93;;;16.20;54.20;;;;;;5050907;28;20066;-82
2022/03/19 16:30:07;;;;;;;15.75;10.10;;;15.00;55.50;;;;;;5047101;28;20025;-83
2022/03/19 16:32:34;;;;;;;14.95;9.27;;;14.80;54.70;;;;;;5050715;28;20102;-83
2022/03/19 16:35:00;;;;;;;17.33;9.35;;;15.00;54.70;;;;;;5032924;28;20040;-84
2022/03/19 16:37:29;;;;;;;16.17;8.93;;;15.00;54.80;;;;;;5051148;28;20017;-83
2022/03/19 16:40:08;;;;;;;20.20;11.98;;;15.10;55.50;;;;;;5050749;28;20047;-83
2022/03/19 16:42:47;;;;;;;113.68;86.32;;;15.90;55.10;;;;;;5050730;28;20452;-82
2022/03/19 16:45:16;;;;;;;19.48;11.50;;;15.60;53.20;;;;;;5029576;28;20032;-83
2022/03/19 16:47:44;;;;;;;60.45;38.55;;;14.70;55.50;;;;;;5050658;28;20017;-83
2022/03/19 16:50:10;;;;;;;19.58;15.00;;;14.10;57.10;;;;;;5050326;28;20510;-82
2022/03/19 16:52:36;;;;;;;79.85;58.03;;;13.70;56.50;;;;;;5050792;28;20029;-82
2022/03/19 16:55:02;;;;;;;35.13;27.35;;;13.40;57.80;;;;;;5050056;28;20040;-81
2022/03/19 16:57:28;;;;;;;46.60;32.25;;;13.20;57.50;;;;;;5050462;28;20032;-80
2022/03/19 16:59:54;;;;;;;20.48;13.15;;;13.10;58.60;;;;;;5050188;28;20045;-80
2022/03/19 17:02:22;;;;;;;17.00;10.43;;;12.60;59.70;;;;;;5050446;28;20032;-82
2022/03/19 17:04:48;;;;;;;14.90;8.85;;;12.20;61.50;;;;;;5052588;28;20029;-83
2022/03/19 17:07:17;;;;;;;18.73;9.30;;;11.80;63.70;;;;;;5051751;28;20079;-82
2022/03/19 17:09:42;;;;;;;16.55;10.30;;;11.60;65.40;;;;;;5050338;28;20036;-82
2022/03/19 17:12:08;;;;;;;16.30;11.65;;;11.30;66.40;;;;;;5050996;28;20071;-82
2022/03/19 17:14:34;;;;;;;35.20;22.48;;;11.10;69.00;;;;;;5054326;28;20021;-81
2022/03/19 17:17:00;;;;;;;26.83;18.80;;;10.90;67.20;;;;;;5036921;28;20027;-81
2022/03/19 17:19:26;;;;;;;15.80;10.75;;;10.90;64.80;;;;;;5053900;28;20443;-82
2022/03/19 17:21:52;;;;;;;16.23;9.85;;;10.90;65.10;;;;;;5054448;28;20056;-83
2022/03/19 17:24:18;;;;;;;14.95;9.88;;;10.90;66.30;;;;;;5054354;28;20074;-83
2022/03/19 17:26:49;;;;;;;16.80;10.70;;;10.90;67.60;;;;;;5054505;28;20067;-84